sensor_id;sensor_type;location;lat;lon;timestamp;P1;durP1;ratioP1;P2;durP2;ratioP2
72408;SDS011;60402;48.082;11.628;2024-01-06T00:02:42;10.35;;;4.80;;
72408;SDS011;60402;48.082;11.628;2024-01-06T00:05:28;10.82;;;4.47;;
72408;SDS011;60402;48.082;11.628;2024-01-06T00:08:14;8.60;;;4.30;;
72408;SDS011;60402;48.082;11.628;2024-01-06T00:10:59;8.15;;;4.20;;
72408;SDS011;60402;48.082;11.628;2024-01-06T00:13:48;8.88;;;4.50;;
72408;SDS011;60402;48.082;11.628;2024-01-06T00:16:34;9.55;;;4.65;;
72408;SDS011;60402;48.082;11.628;2024-01-06T00:19:19;8.35;;;4.10;;
72408;SDS011;60402;48.082;11.628;2024-01-06T00:22:05;10.57;;;4.45;;
72408;SDS011;60402;48.082;11.628;2024-01-06T00:24:51;9.52;;;4.78;;
72408;SDS011;60402;48.082;11.628;2024-01-06T00:27:36;9.60;;;4.72;;
72408;SDS011;60402;48.082;11.628;2024-01-06T00:30:22;9.60;;;3.88;;
72408;SDS011;60402;48.082;11.628;2024-01-06T00:33:08;11.32;;;4.65;;
72408;SDS011;60402;48.082;11.628;2024-01-06T00:35:53;9.40;;;4.53;;
72408;SDS011;60402;48.082;11.628;2024-01-06T00:38:40;7.18;;;3.47;;
72408;SDS011;60402;48.082;11.628;2024-01-06T00:41:26;7.55;;;3.25;;
72408;SDS011;60402;48.082;11.628;2024-01-06T00:44:11;8.90;;;3.60;;
72408;SDS011;60402;48.082;11.628;2024-01-06T00:46:57;8.30;;;4.00;;
72408;SDS011;60402;48.082;11.628;2024-01-06T00:49:43;8.70;;;3.65;;
72408;SDS011;60402;48.082;11.628;2024-01-06T00:52:28;7.95;;;3.70;;
72408;SDS011;60402;48.082;11.628;2024-01-06T00:55:14;7.13;;;3.33;;
72408;SDS011;60402;48.082;11.628;2024-01-06T00:58:00;6.55;;;3.10;;
72408;SDS011;60402;48.082;11.628;2024-01-06T01:00:45;5.90;;;2.55;;
72408;SDS011;60402;48.082;11.628;2024-01-06T01:03:31;5.60;;;2.13;;
72408;SDS011;60402;48.082;11.628;2024-01-06T01:06:17;5.95;;;2.42;;
72408;SDS011;60402;48.082;11.628;2024-01-06T01:09:02;6.93;;;2.70;;
72408;SDS011;60402;48.082;11.628;2024-01-06T01:11:49;5.57;;;2.45;;
72408;SDS011;60402;48.082;11.628;2024-01-06T01:14:35;4.95;;;2.22;;
72408;SDS011;60402;48.082;11.628;2024-01-06T01:17:20;5.10;;;2.17;;
72408;SDS011;60402;48.082;11.628;2024-01-06T01:20:06;6.20;;;2.30;;
72408;SDS011;60402;48.082;11.628;2024-01-06T01:22:52;6.75;;;2.53;;
72408;SDS011;60402;48.082;11.628;2024-01-06T01:25:38;5.63;;;2.08;;
72408;SDS011;60402;48.082;11.628;2024-01-06T01:28:23;4.82;;;2.20;;
72408;SDS011;60402;48.082;11.628;2024-01-06T01:31:09;3.92;;;1.60;;
72408;SDS011;60402;48.082;11.628;2024-01-06T01:33:55;3.33;;;1.50;;
72408;SDS011;60402;48.082;11.628;2024-01-06T01:36:40;5.05;;;1.77;;
72408;SDS011;60402;48.082;11.628;2024-01-06T01:39:26;4.70;;;1.88;;
72408;SDS011;60402;48.082;11.628;2024-01-06T01:42:12;4.88;;;1.92;;
72408;SDS011;60402;48.082;11.628;2024-01-06T01:44:58;4.35;;;1.67;;
72408;SDS011;60402;48.082;11.628;2024-01-06T01:47:43;4.10;;;1.70;;
72408;SDS011;60402;48.082;11.628;2024-01-06T01:50:30;3.78;;;1.63;;
72408;SDS011;60402;48.082;11.628;2024-01-06T01:53:16;4.68;;;1.75;;
72408;SDS011;60402;48.082;11.628;2024-01-06T01:56:02;4.65;;;1.77;;
72408;SDS011;60402;48.082;11.628;2024-01-06T01:58:49;4.32;;;1.60;;
72408;SDS011;60402;48.082;11.628;2024-01-06T02:01:35;4.03;;;1.55;;
72408;SDS011;60402;48.082;11.628;2024-01-06T02:04:21;4.43;;;1.80;;
72408;SDS011;60402;48.082;11.628;2024-01-06T02:07:06;5.47;;;1.90;;
72408;SDS011;60402;48.082;11.628;2024-01-06T02:09:52;5.75;;;2.50;;
72408;SDS011;60402;48.082;11.628;2024-01-06T02:12:38;6.32;;;2.58;;
72408;SDS011;60402;48.082;11.628;2024-01-06T02:15:23;5.10;;;2.28;;
72408;SDS011;60402;48.082;11.628;2024-01-06T02:18:09;6.30;;;2.67;;
72408;SDS011;60402;48.082;11.628;2024-01-06T02:20:56;6.25;;;2.53;;
72408;SDS011;60402;48.082;11.628;2024-01-06T02:26:29;7.05;;;3.03;;
72408;SDS011;60402;48.082;11.628;2024-01-06T02:29:15;5.68;;;2.92;;
72408;SDS011;60402;48.082;11.628;2024-01-06T02:32:00;6.70;;;3.00;;
72408;SDS011;60402;48.082;11.628;2024-01-06T02:34:46;6.07;;;3.05;;
72408;SDS011;60402;48.082;11.628;2024-01-06T02:37:32;6.82;;;2.85;;
72408;SDS011;60402;48.082;11.628;2024-01-06T02:40:17;6.20;;;3.13;;
72408;SDS011;60402;48.082;11.628;2024-01-06T02:43:03;8.27;;;3.10;;
72408;SDS011;60402;48.082;11.628;2024-01-06T02:45:49;6.03;;;2.50;;
72408;SDS011;60402;48.082;11.628;2024-01-06T02:48:34;6.32;;;2.10;;
72408;SDS011;60402;48.082;11.628;2024-01-06T02:51:20;6.15;;;2.20;;
72408;SDS011;60402;48.082;11.628;2024-01-06T02:54:06;3.22;;;1.50;;
72408;SDS011;60402;48.082;11.628;2024-01-06T02:56:51;5.78;;;1.60;;
72408;SDS011;60402;48.082;11.628;2024-01-06T02:59:37;3.00;;;1.20;;
72408;SDS011;60402;48.082;11.628;2024-01-06T03:02:23;3.40;;;1.27;;
72408;SDS011;60402;48.082;11.628;2024-01-06T03:05:09;3.38;;;1.27;;
72408;SDS011;60402;48.082;11.628;2024-01-06T03:07:55;2.55;;;1.10;;
72408;SDS011;60402;48.082;11.628;2024-01-06T03:10:41;2.90;;;1.10;;
72408;SDS011;60402;48.082;11.628;2024-01-06T03:13:27;3.55;;;1.10;;
72408;SDS011;60402;48.082;11.628;2024-01-06T03:16:12;3.22;;;1.20;;
72408;SDS011;60402;48.082;11.628;2024-01-06T03:18:58;3.30;;;1.25;;
72408;SDS011;60402;48.082;11.628;2024-01-06T03:21:44;2.42;;;1.23;;
72408;SDS011;60402;48.082;11.628;2024-01-06T03:24:29;2.83;;;1.30;;
72408;SDS011;60402;48.082;11.628;2024-01-06T03:27:16;3.17;;;1.42;;
72408;SDS011;60402;48.082;11.628;2024-01-06T03:30:02;3.33;;;1.33;;
72408;SDS011;60402;48.082;11.628;2024-01-06T03:32:48;3.38;;;1.30;;
72408;SDS011;60402;48.082;11.628;2024-01-06T03:35:34;2.58;;;1.42;;
72408;SDS011;60402;48.082;11.628;2024-01-06T03:38:19;4.43;;;1.92;;
72408;SDS011;60402;48.082;11.628;2024-01-06T03:41:05;2.97;;;1.27;;
72408;SDS011;60402;48.082;11.628;2024-01-06T03:43:51;2.22;;;1.17;;
72408;SDS011;60402;48.082;11.628;2024-01-06T03:46:37;2.95;;;1.30;;
72408;SDS011;60402;48.082;11.628;2024-01-06T03:49:23;3.00;;;1.40;;
72408;SDS011;60402;48.082;11.628;2024-01-06T03:52:09;2.45;;;1.20;;
72408;SDS011;60402;48.082;11.628;2024-01-06T03:54:55;3.30;;;1.25;;
72408;SDS011;60402;48.082;11.628;2024-01-06T03:57:40;2.85;;;1.15;;
72408;SDS011;60402;48.082;11.628;2024-01-06T04:00:26;2.15;;;1.00;;
72408;SDS011;60402;48.082;11.628;2024-01-06T04:03:11;2.78;;;1.20;;
72408;SDS011;60402;48.082;11.628;2024-01-06T04:05:57;3.97;;;1.17;;
72408;SDS011;60402;48.082;11.628;2024-01-06T04:08:43;3.53;;;0.90;;
72408;SDS011;60402;48.082;11.628;2024-01-06T04:11:28;2.00;;;1.00;;
72408;SDS011;60402;48.082;11.628;2024-01-06T04:14:14;1.45;;;0.80;;
72408;SDS011;60402;48.082;11.628;2024-01-06T04:17:00;1.70;;;0.80;;
72408;SDS011;60402;48.082;11.628;2024-01-06T04:19:45;1.67;;;0.75;;
72408;SDS011;60402;48.082;11.628;2024-01-06T04:22:31;1.40;;;0.70;;
72408;SDS011;60402;48.082;11.628;2024-01-06T04:25:17;0.77;;;0.50;;
72408;SDS011;60402;48.082;11.628;2024-01-06T04:28:02;0.38;;;0.38;;
72408;SDS011;60402;48.082;11.628;2024-01-06T04:30:49;0.70;;;0.45;;
72408;SDS011;60402;48.082;11.628;2024-01-06T04:33:35;0.98;;;0.50;;
72408;SDS011;60402;48.082;11.628;2024-01-06T04:36:22;2.10;;;0.55;;
72408;SDS011;60402;48.082;11.628;2024-01-06T04:39:07;1.08;;;0.60;;
72408;SDS011;60402;48.082;11.628;2024-01-06T04:41:53;1.10;;;0.60;;
72408;SDS011;60402;48.082;11.628;2024-01-06T04:44:38;1.17;;;0.60;;
72408;SDS011;60402;48.082;11.628;2024-01-06T04:47:24;1.42;;;0.60;;
72408;SDS011;60402;48.082;11.628;2024-01-06T04:50:10;1.40;;;0.50;;
72408;SDS011;60402;48.082;11.628;2024-01-06T04:52:56;1.20;;;0.47;;
72408;SDS011;60402;48.082;11.628;2024-01-06T04:55:42;2.75;;;0.60;;
72408;SDS011;60402;48.082;11.628;2024-01-06T04:58:27;1.15;;;0.63;;
72408;SDS011;60402;48.082;11.628;2024-01-06T05:01:13;0.93;;;0.55;;
72408;SDS011;60402;48.082;11.628;2024-01-06T05:03:59;0.43;;;0.40;;
72408;SDS011;60402;48.082;11.628;2024-01-06T05:06:44;0.47;;;0.30;;
72408;SDS011;60402;48.082;11.628;2024-01-06T05:09:30;0.45;;;0.45;;
72408;SDS011;60402;48.082;11.628;2024-01-06T05:12:16;0.30;;;0.28;;
72408;SDS011;60402;48.082;11.628;2024-01-06T05:15:02;0.30;;;0.30;;
72408;SDS011;60402;48.082;11.628;2024-01-06T05:17:47;0.30;;;0.30;;
72408;SDS011;60402;48.082;11.628;2024-01-06T05:20:33;0.52;;;0.52;;
72408;SDS011;60402;48.082;11.628;2024-01-06T05:23:19;0.47;;;0.28;;
72408;SDS011;60402;48.082;11.628;2024-01-06T05:26:04;0.57;;;0.32;;
72408;SDS011;60402;48.082;11.628;2024-01-06T05:28:50;0.52;;;0.35;;
72408;SDS011;60402;48.082;11.628;2024-01-06T05:31:37;0.35;;;0.32;;
72408;SDS011;60402;48.082;11.628;2024-01-06T05:34:22;0.45;;;0.40;;
72408;SDS011;60402;48.082;11.628;2024-01-06T05:37:08;0.30;;;0.30;;
72408;SDS011;60402;48.082;11.628;2024-01-06T05:39:54;0.85;;;0.57;;
72408;SDS011;60402;48.082;11.628;2024-01-06T05:42:40;1.30;;;0.50;;
72408;SDS011;60402;48.082;11.628;2024-01-06T05:45:25;1.20;;;0.50;;
72408;SDS011;60402;48.082;11.628;2024-01-06T05:48:11;1.10;;;0.30;;
72408;SDS011;60402;48.082;11.628;2024-01-06T05:50:57;0.30;;;0.30;;
72408;SDS011;60402;48.082;11.628;2024-01-06T05:53:42;0.50;;;0.50;;
72408;SDS011;60402;48.082;11.628;2024-01-06T05:56:28;0.65;;;0.40;;
72408;SDS011;60402;48.082;11.628;2024-01-06T05:59:14;1.33;;;0.30;;
72408;SDS011;60402;48.082;11.628;2024-01-06T06:02:00;8.45;;;3.55;;
72408;SDS011;60402;48.082;11.628;2024-01-06T06:04:45;4.50;;;2.00;;
72408;SDS011;60402;48.082;11.628;2024-01-06T06:07:31;2.92;;;1.20;;
72408;SDS011;60402;48.082;11.628;2024-01-06T06:10:17;2.03;;;0.90;;
72408;SDS011;60402;48.082;11.628;2024-01-06T06:13:04;0.70;;;0.57;;
72408;SDS011;60402;48.082;11.628;2024-01-06T06:15:49;0.80;;;0.55;;
72408;SDS011;60402;48.082;11.628;2024-01-06T06:18:35;0.50;;;0.50;;
72408;SDS011;60402;48.082;11.628;2024-01-06T06:21:20;0.50;;;0.50;;
72408;SDS011;60402;48.082;11.628;2024-01-06T06:24:06;0.93;;;0.60;;
72408;SDS011;60402;48.082;11.628;2024-01-06T06:26:52;0.88;;;0.50;;
72408;SDS011;60402;48.082;11.628;2024-01-06T06:29:37;1.27;;;0.50;;
72408;SDS011;60402;48.082;11.628;2024-01-06T06:32:23;1.00;;;0.70;;
72408;SDS011;60402;48.082;11.628;2024-01-06T06:35:10;1.08;;;0.85;;
72408;SDS011;60402;48.082;11.628;2024-01-06T06:37:56;2.38;;;1.23;;
72408;SDS011;60402;48.082;11.628;2024-01-06T06:40:41;11.25;;;3.55;;
72408;SDS011;60402;48.082;11.628;2024-01-06T06:43:27;21.67;;;6.95;;
72408;SDS011;60402;48.082;11.628;2024-01-06T06:46:13;6.57;;;2.00;;
72408;SDS011;60402;48.082;11.628;2024-01-06T06:48:58;4.25;;;1.55;;
72408;SDS011;60402;48.082;11.628;2024-01-06T06:51:44;2.22;;;1.08;;
72408;SDS011;60402;48.082;11.628;2024-01-06T06:54:33;3.28;;;1.40;;
72408;SDS011;60402;48.082;11.628;2024-01-06T06:57:19;3.65;;;1.40;;
72408;SDS011;60402;48.082;11.628;2024-01-06T07:00:05;2.33;;;1.20;;
72408;SDS011;60402;48.082;11.628;2024-01-06T07:02:52;1.45;;;1.00;;
72408;SDS011;60402;48.082;11.628;2024-01-06T07:05:38;2.85;;;0.90;;
72408;SDS011;60402;48.082;11.628;2024-01-06T07:08:24;2.85;;;1.20;;
72408;SDS011;60402;48.082;11.628;2024-01-06T07:11:10;4.25;;;1.10;;
72408;SDS011;60402;48.082;11.628;2024-01-06T07:13:56;2.83;;;1.35;;
72408;SDS011;60402;48.082;11.628;2024-01-06T07:16:42;3.53;;;1.20;;
72408;SDS011;60402;48.082;11.628;2024-01-06T07:19:28;2.55;;;1.10;;
72408;SDS011;60402;48.082;11.628;2024-01-06T07:22:13;3.50;;;1.60;;
72408;SDS011;60402;48.082;11.628;2024-01-06T07:25:00;3.65;;;1.50;;
72408;SDS011;60402;48.082;11.628;2024-01-06T07:27:46;3.15;;;1.40;;
72408;SDS011;60402;48.082;11.628;2024-01-06T07:30:32;3.65;;;1.25;;
72408;SDS011;60402;48.082;11.628;2024-01-06T07:33:18;2.95;;;1.20;;
72408;SDS011;60402;48.082;11.628;2024-01-06T07:36:04;2.42;;;1.20;;
72408;SDS011;60402;48.082;11.628;2024-01-06T07:38:50;3.83;;;1.27;;
72408;SDS011;60402;48.082;11.628;2024-01-06T07:41:37;2.53;;;1.17;;
72408;SDS011;60402;48.082;11.628;2024-01-06T07:44:22;2.85;;;1.50;;
72408;SDS011;60402;48.082;11.628;2024-01-06T07:47:10;3.72;;;1.42;;
72408;SDS011;60402;48.082;11.628;2024-01-06T07:49:56;3.45;;;1.33;;
72408;SDS011;60402;48.082;11.628;2024-01-06T07:52:42;3.78;;;1.48;;
72408;SDS011;60402;48.082;11.628;2024-01-06T07:55:28;3.20;;;1.50;;
72408;SDS011;60402;48.082;11.628;2024-01-06T07:58:14;3.42;;;1.52;;
72408;SDS011;60402;48.082;11.628;2024-01-06T08:01:00;8.82;;;3.13;;
72408;SDS011;60402;48.082;11.628;2024-01-06T08:03:46;7.25;;;3.80;;
72408;SDS011;60402;48.082;11.628;2024-01-06T08:06:32;10.38;;;3.97;;
72408;SDS011;60402;48.082;11.628;2024-01-06T08:09:18;8.35;;;3.38;;
72408;SDS011;60402;48.082;11.628;2024-01-06T08:12:04;8.43;;;3.50;;
72408;SDS011;60402;48.082;11.628;2024-01-06T08:14:50;6.32;;;2.30;;
72408;SDS011;60402;48.082;11.628;2024-01-06T08:17:35;3.97;;;1.52;;
72408;SDS011;60402;48.082;11.628;2024-01-06T08:20:22;4.07;;;1.50;;
72408;SDS011;60402;48.082;11.628;2024-01-06T08:23:08;4.35;;;2.22;;
72408;SDS011;60402;48.082;11.628;2024-01-06T08:25:54;7.30;;;3.38;;
72408;SDS011;60402;48.082;11.628;2024-01-06T08:28:40;10.10;;;4.72;;
72408;SDS011;60402;48.082;11.628;2024-01-06T08:31:26;17.42;;;5.97;;
72408;SDS011;60402;48.082;11.628;2024-01-06T08:34:11;18.85;;;6.45;;
72408;SDS011;60402;48.082;11.628;2024-01-06T08:36:57;10.75;;;3.78;;
72408;SDS011;60402;48.082;11.628;2024-01-06T08:39:43;5.97;;;2.30;;
72408;SDS011;60402;48.082;11.628;2024-01-06T08:42:28;5.22;;;2.30;;
72408;SDS011;60402;48.082;11.628;2024-01-06T08:45:14;4.65;;;1.83;;
72408;SDS011;60402;48.082;11.628;2024-01-06T08:48:00;4.60;;;1.70;;
72408;SDS011;60402;48.082;11.628;2024-01-06T08:50:51;4.10;;;1.90;;
72408;SDS011;60402;48.082;11.628;2024-01-06T08:53:40;4.40;;;1.77;;
72408;SDS011;60402;48.082;11.628;2024-01-06T08:56:25;4.90;;;1.90;;
72408;SDS011;60402;48.082;11.628;2024-01-06T08:59:11;6.18;;;2.17;;
72408;SDS011;60402;48.082;11.628;2024-01-06T09:01:57;3.58;;;1.80;;
72408;SDS011;60402;48.082;11.628;2024-01-06T09:04:42;6.40;;;2.13;;
72408;SDS011;60402;48.082;11.628;2024-01-06T09:07:28;3.75;;;1.98;;
72408;SDS011;60402;48.082;11.628;2024-01-06T09:10:14;5.20;;;1.65;;
72408;SDS011;60402;48.082;11.628;2024-01-06T09:12:59;3.00;;;1.40;;
72408;SDS011;60402;48.082;11.628;2024-01-06T09:15:47;3.22;;;1.30;;
72408;SDS011;60402;48.082;11.628;2024-01-06T09:18:32;3.83;;;2.20;;
72408;SDS011;60402;48.082;11.628;2024-01-06T09:21:18;4.38;;;1.45;;
72408;SDS011;60402;48.082;11.628;2024-01-06T09:24:04;2.20;;;1.23;;
72408;SDS011;60402;48.082;11.628;2024-01-06T09:26:51;4.40;;;1.50;;
72408;SDS011;60402;48.082;11.628;2024-01-06T09:29:37;5.35;;;1.60;;
72408;SDS011;60402;48.082;11.628;2024-01-06T09:32:22;3.53;;;1.33;;
72408;SDS011;60402;48.082;11.628;2024-01-06T09:35:09;3.33;;;1.30;;
72408;SDS011;60402;48.082;11.628;2024-01-06T09:37:54;4.10;;;1.60;;
72408;SDS011;60402;48.082;11.628;2024-01-06T09:40:41;4.45;;;1.48;;
72408;SDS011;60402;48.082;11.628;2024-01-06T09:43:31;4.13;;;1.52;;
72408;SDS011;60402;48.082;11.628;2024-01-06T09:49:12;2.35;;;1.25;;
72408;SDS011;60402;48.082;11.628;2024-01-06T09:52:00;3.70;;;1.27;;
72408;SDS011;60402;48.082;11.628;2024-01-06T09:54:48;4.68;;;1.73;;
72408;SDS011;60402;48.082;11.628;2024-01-06T09:57:37;4.07;;;1.63;;
72408;SDS011;60402;48.082;11.628;2024-01-06T10:00:23;5.28;;;1.75;;
72408;SDS011;60402;48.082;11.628;2024-01-06T10:03:09;4.65;;;1.50;;
72408;SDS011;60402;48.082;11.628;2024-01-06T10:05:55;3.00;;;1.30;;
72408;SDS011;60402;48.082;11.628;2024-01-06T10:08:49;3.88;;;1.50;;
72408;SDS011;60402;48.082;11.628;2024-01-06T10:11:36;4.18;;;1.58;;
72408;SDS011;60402;48.082;11.628;2024-01-06T10:14:22;6.03;;;1.77;;
72408;SDS011;60402;48.082;11.628;2024-01-06T10:17:09;3.70;;;1.60;;
72408;SDS011;60402;48.082;11.628;2024-01-06T10:19:54;3.13;;;1.50;;
72408;SDS011;60402;48.082;11.628;2024-01-06T10:22:41;3.97;;;1.75;;
72408;SDS011;60402;48.082;11.628;2024-01-06T10:25:27;4.18;;;1.70;;
72408;SDS011;60402;48.082;11.628;2024-01-06T10:28:13;4.18;;;1.92;;
72408;SDS011;60402;48.082;11.628;2024-01-06T10:30:59;4.70;;;1.90;;
72408;SDS011;60402;48.082;11.628;2024-01-06T10:33:45;6.18;;;1.85;;
72408;SDS011;60402;48.082;11.628;2024-01-06T10:36:31;4.22;;;1.80;;
72408;SDS011;60402;48.082;11.628;2024-01-06T10:39:17;5.13;;;1.88;;
72408;SDS011;60402;48.082;11.628;2024-01-06T10:42:03;3.35;;;1.50;;
72408;SDS011;60402;48.082;11.628;2024-01-06T10:44:49;5.00;;;2.00;;
72408;SDS011;60402;48.082;11.628;2024-01-06T10:47:36;5.20;;;2.30;;
72408;SDS011;60402;48.082;11.628;2024-01-06T10:50:22;5.50;;;2.00;;
72408;SDS011;60402;48.082;11.628;2024-01-06T10:53:08;5.78;;;2.20;;
72408;SDS011;60402;48.082;11.628;2024-01-06T10:55:54;5.03;;;1.92;;
72408;SDS011;60402;48.082;11.628;2024-01-06T10:58:50;9.00;;;2.17;;
72408;SDS011;60402;48.082;11.628;2024-01-06T11:01:37;5.32;;;2.17;;
72408;SDS011;60402;48.082;11.628;2024-01-06T11:04:24;8.07;;;2.42;;
72408;SDS011;60402;48.082;11.628;2024-01-06T11:07:10;5.40;;;1.80;;
72408;SDS011;60402;48.082;11.628;2024-01-06T11:12:44;6.15;;;2.15;;
72408;SDS011;60402;48.082;11.628;2024-01-06T11:15:39;4.90;;;2.00;;
72408;SDS011;60402;48.082;11.628;2024-01-06T11:18:33;5.97;;;1.85;;
72408;SDS011;60402;48.082;11.628;2024-01-06T11:21:20;6.53;;;2.05;;
72408;SDS011;60402;48.082;11.628;2024-01-06T11:24:18;3.63;;;1.67;;
72408;SDS011;60402;48.082;11.628;2024-01-06T11:27:10;7.05;;;1.92;;
72408;SDS011;60402;48.082;11.628;2024-01-06T11:30:03;4.78;;;1.90;;
72408;SDS011;60402;48.082;11.628;2024-01-06T11:32:51;5.68;;;2.13;;
72408;SDS011;60402;48.082;11.628;2024-01-06T11:35:38;14.90;;;2.45;;
72408;SDS011;60402;48.082;11.628;2024-01-06T11:38:24;5.13;;;1.98;;
72408;SDS011;60402;48.082;11.628;2024-01-06T11:41:10;4.40;;;2.10;;
72408;SDS011;60402;48.082;11.628;2024-01-06T11:44:38;5.32;;;2.22;;
72408;SDS011;60402;48.082;11.628;2024-01-06T11:47:25;5.25;;;2.53;;
72408;SDS011;60402;48.082;11.628;2024-01-06T11:50:10;5.47;;;2.05;;
72408;SDS011;60402;48.082;11.628;2024-01-06T11:52:56;6.30;;;2.50;;
72408;SDS011;60402;48.082;11.628;2024-01-06T11:55:42;6.53;;;2.15;;
72408;SDS011;60402;48.082;11.628;2024-01-06T11:58:28;9.50;;;2.80;;
72408;SDS011;60402;48.082;11.628;2024-01-06T12:01:14;5.75;;;2.10;;
72408;SDS011;60402;48.082;11.628;2024-01-06T12:03:59;5.40;;;2.60;;
72408;SDS011;60402;48.082;11.628;2024-01-06T12:06:46;5.43;;;2.35;;
72408;SDS011;60402;48.082;11.628;2024-01-06T12:09:32;9.13;;;2.60;;
72408;SDS011;60402;48.082;11.628;2024-01-06T12:12:18;6.43;;;2.72;;
72408;SDS011;60402;48.082;11.628;2024-01-06T12:15:04;6.47;;;2.85;;
72408;SDS011;60402;48.082;11.628;2024-01-06T12:17:50;6.18;;;2.63;;
72408;SDS011;60402;48.082;11.628;2024-01-06T12:20:36;6.20;;;2.80;;
72408;SDS011;60402;48.082;11.628;2024-01-06T12:23:25;6.22;;;3.00;;
72408;SDS011;60402;48.082;11.628;2024-01-06T12:26:13;6.53;;;2.80;;
72408;SDS011;60402;48.082;11.628;2024-01-06T12:28:58;6.60;;;2.83;;
72408;SDS011;60402;48.082;11.628;2024-01-06T12:31:44;7.97;;;3.40;;
72408;SDS011;60402;48.082;11.628;2024-01-06T12:34:30;10.10;;;3.72;;
72408;SDS011;60402;48.082;11.628;2024-01-06T12:37:15;7.57;;;3.33;;
72408;SDS011;60402;48.082;11.628;2024-01-06T12:40:02;9.00;;;3.97;;
72408;SDS011;60402;48.082;11.628;2024-01-06T12:42:48;9.45;;;3.17;;
72408;SDS011;60402;48.082;11.628;2024-01-06T12:45:33;8.95;;;2.55;;
72408;SDS011;60402;48.082;11.628;2024-01-06T12:48:19;8.18;;;2.58;;
72408;SDS011;60402;48.082;11.628;2024-01-06T12:51:05;5.28;;;2.40;;
72408;SDS011;60402;48.082;11.628;2024-01-06T12:53:50;6.93;;;2.83;;
72408;SDS011;60402;48.082;11.628;2024-01-06T12:56:36;5.95;;;2.70;;
72408;SDS011;60402;48.082;11.628;2024-01-06T12:59:22;6.18;;;2.78;;
72408;SDS011;60402;48.082;11.628;2024-01-06T13:02:08;5.55;;;2.78;;
72408;SDS011;60402;48.082;11.628;2024-01-06T13:04:53;6.20;;;2.50;;
72408;SDS011;60402;48.082;11.628;2024-01-06T13:07:40;9.00;;;2.55;;
72408;SDS011;60402;48.082;11.628;2024-01-06T13:10:26;5.60;;;2.60;;
72408;SDS011;60402;48.082;11.628;2024-01-06T13:13:12;5.72;;;2.17;;
72408;SDS011;60402;48.082;11.628;2024-01-06T13:15:57;6.38;;;2.47;;
72408;SDS011;60402;48.082;11.628;2024-01-06T13:18:43;4.70;;;2.28;;
72408;SDS011;60402;48.082;11.628;2024-01-06T13:21:29;5.90;;;2.53;;
72408;SDS011;60402;48.082;11.628;2024-01-06T13:24:14;6.43;;;2.65;;
72408;SDS011;60402;48.082;11.628;2024-01-06T13:27:00;5.35;;;2.47;;
72408;SDS011;60402;48.082;11.628;2024-01-06T13:29:48;6.20;;;2.67;;
72408;SDS011;60402;48.082;11.628;2024-01-06T13:32:34;5.38;;;2.70;;
72408;SDS011;60402;48.082;11.628;2024-01-06T13:35:20;5.25;;;1.88;;
72408;SDS011;60402;48.082;11.628;2024-01-06T13:38:07;6.68;;;2.60;;
72408;SDS011;60402;48.082;11.628;2024-01-06T13:40:54;5.45;;;2.55;;
72408;SDS011;60402;48.082;11.628;2024-01-06T13:43:40;5.20;;;1.92;;
72408;SDS011;60402;48.082;11.628;2024-01-06T13:46:25;7.82;;;2.58;;
72408;SDS011;60402;48.082;11.628;2024-01-06T13:49:11;5.45;;;2.35;;
72408;SDS011;60402;48.082;11.628;2024-01-06T13:51:57;4.68;;;2.08;;
72408;SDS011;60402;48.082;11.628;2024-01-06T13:54:43;6.32;;;2.30;;
72408;SDS011;60402;48.082;11.628;2024-01-06T13:57:28;5.20;;;2.20;;
72408;SDS011;60402;48.082;11.628;2024-01-06T14:00:14;5.55;;;2.58;;
72408;SDS011;60402;48.082;11.628;2024-01-06T14:03:04;6.90;;;2.90;;
72408;SDS011;60402;48.082;11.628;2024-01-06T14:05:49;6.45;;;2.45;;
72408;SDS011;60402;48.082;11.628;2024-01-06T14:08:36;6.32;;;2.70;;
72408;SDS011;60402;48.082;11.628;2024-01-06T14:11:22;5.35;;;2.28;;
72408;SDS011;60402;48.082;11.628;2024-01-06T14:14:08;6.38;;;2.72;;
72408;SDS011;60402;48.082;11.628;2024-01-06T14:16:54;6.18;;;2.63;;
72408;SDS011;60402;48.082;11.628;2024-01-06T14:19:40;6.15;;;2.70;;
72408;SDS011;60402;48.082;11.628;2024-01-06T14:22:26;6.80;;;2.80;;
72408;SDS011;60402;48.082;11.628;2024-01-06T14:25:15;15.57;;;7.20;;
72408;SDS011;60402;48.082;11.628;2024-01-06T14:28:03;8.48;;;3.90;;
72408;SDS011;60402;48.082;11.628;2024-01-06T14:30:49;7.57;;;4.38;;
72408;SDS011;60402;48.082;11.628;2024-01-06T14:33:34;7.60;;;3.33;;
72408;SDS011;60402;48.082;11.628;2024-01-06T14:36:20;6.65;;;3.00;;
72408;SDS011;60402;48.082;11.628;2024-01-06T14:39:06;6.22;;;2.97;;
72408;SDS011;60402;48.082;11.628;2024-01-06T14:41:52;7.18;;;3.08;;
72408;SDS011;60402;48.082;11.628;2024-01-06T14:44:37;7.13;;;4.00;;
72408;SDS011;60402;48.082;11.628;2024-01-06T14:47:23;8.65;;;4.40;;
72408;SDS011;60402;48.082;11.628;2024-01-06T14:50:08;6.47;;;3.08;;
72408;SDS011;60402;48.082;11.628;2024-01-06T14:52:54;7.68;;;2.85;;
72408;SDS011;60402;48.082;11.628;2024-01-06T14:55:40;6.15;;;3.05;;
72408;SDS011;60402;48.082;11.628;2024-01-06T14:58:26;7.95;;;3.53;;
72408;SDS011;60402;48.082;11.628;2024-01-06T15:01:11;6.70;;;3.60;;
72408;SDS011;60402;48.082;11.628;2024-01-06T15:03:57;6.82;;;3.15;;
72408;SDS011;60402;48.082;11.628;2024-01-06T15:06:43;6.20;;;3.10;;
72408;SDS011;60402;48.082;11.628;2024-01-06T15:09:29;9.27;;;3.40;;
72408;SDS011;60402;48.082;11.628;2024-01-06T15:12:14;8.68;;;3.55;;
72408;SDS011;60402;48.082;11.628;2024-01-06T15:15:00;11.20;;;3.05;;
72408;SDS011;60402;48.082;11.628;2024-01-06T15:17:46;5.53;;;3.13;;
72408;SDS011;60402;48.082;11.628;2024-01-06T15:20:32;8.98;;;4.05;;
72408;SDS011;60402;48.082;11.628;2024-01-06T15:23:18;44.40;;;12.95;;
72408;SDS011;60402;48.082;11.628;2024-01-06T15:26:04;33.70;;;10.60;;
72408;SDS011;60402;48.082;11.628;2024-01-06T15:28:50;27.63;;;9.15;;
72408;SDS011;60402;48.082;11.628;2024-01-06T15:31:35;10.75;;;4.72;;
72408;SDS011;60402;48.082;11.628;2024-01-06T15:34:22;7.35;;;3.67;;
72408;SDS011;60402;48.082;11.628;2024-01-06T15:37:09;6.93;;;3.28;;
72408;SDS011;60402;48.082;11.628;2024-01-06T15:39:55;7.65;;;3.53;;
72408;SDS011;60402;48.082;11.628;2024-01-06T15:42:40;8.10;;;3.63;;
72408;SDS011;60402;48.082;11.628;2024-01-06T15:45:26;7.80;;;3.55;;
72408;SDS011;60402;48.082;11.628;2024-01-06T15:48:11;8.50;;;3.72;;
72408;SDS011;60402;48.082;11.628;2024-01-06T15:50:57;9.05;;;3.97;;
72408;SDS011;60402;48.082;11.628;2024-01-06T15:53:43;6.75;;;3.38;;
72408;SDS011;60402;48.082;11.628;2024-01-06T15:56:28;8.43;;;3.50;;
72408;SDS011;60402;48.082;11.628;2024-01-06T15:59:14;7.47;;;4.00;;
72408;SDS011;60402;48.082;11.628;2024-01-06T16:02:00;6.68;;;3.67;;
72408;SDS011;60402;48.082;11.628;2024-01-06T16:04:45;8.82;;;4.38;;
72408;SDS011;60402;48.082;11.628;2024-01-06T16:07:31;7.65;;;3.95;;
72408;SDS011;60402;48.082;11.628;2024-01-06T16:10:17;7.38;;;3.80;;
72408;SDS011;60402;48.082;11.628;2024-01-06T16:13:02;7.63;;;4.00;;
72408;SDS011;60402;48.082;11.628;2024-01-06T16:15:48;9.38;;;4.25;;
72408;SDS011;60402;48.082;11.628;2024-01-06T16:18:36;8.32;;;4.15;;
72408;SDS011;60402;48.082;11.628;2024-01-06T16:21:22;10.52;;;4.53;;
72408;SDS011;60402;48.082;11.628;2024-01-06T16:24:10;16.25;;;7.85;;
72408;SDS011;60402;48.082;11.628;2024-01-06T16:26:56;10.70;;;5.50;;
72408;SDS011;60402;48.082;11.628;2024-01-06T16:29:42;9.88;;;4.95;;
72408;SDS011;60402;48.082;11.628;2024-01-06T16:32:27;9.45;;;4.60;;
72408;SDS011;60402;48.082;11.628;2024-01-06T16:35:13;10.27;;;5.45;;